createdAt,value
2017-08-08T00:07:19.810Z,96.5
2017-08-08T00:17:35.413Z,96.6
2017-08-08T00:27:50.425Z,96.7
2017-08-08T00:38:04.891Z,96.2
2017-08-08T00:48:19.221Z,96.5
2017-08-08T00:58:34.134Z,96.5
2017-08-08T01:08:49.474Z,96.5
2017-08-08T01:19:03.924Z,97
2017-08-08T01:29:19.125Z,97
2017-08-08T01:39:33.924Z,96.8
2017-08-08T01:49:47.665Z,97.5
2017-08-08T02:00:02.725Z,97.8
2017-08-08T02:10:18.104Z,97.4
2017-08-08T02:20:33.117Z,96.5
2017-08-08T02:30:48.082Z,95.6
2017-08-08T02:41:02.861Z,95.2
2017-08-08T02:51:18.080Z,95.6
2017-08-08T03:01:33.754Z,96.2
2017-08-08T03:11:48.949Z,95.6
2017-08-08T03:22:03.508Z,95.5
2017-08-08T03:32:18.411Z,94.9
2017-08-08T03:42:32.187Z,95.3
2017-08-08T03:52:45.974Z,95.8
2017-08-08T04:03:01.199Z,96.5
2017-08-08T04:13:16.338Z,97.3
2017-08-08T04:23:31.417Z,97.1
2017-08-08T04:33:46.883Z,96.6
2017-08-08T04:44:01.710Z,95.9
2017-08-08T04:54:16.502Z,96.8
2017-08-08T05:04:31.938Z,96.3
2017-08-08T05:14:46.097Z,95.9
2017-08-08T05:24:59.880Z,95.5
2017-08-08T05:35:14.062Z,95.5
2017-08-08T05:45:28.281Z,94.8
2017-08-08T05:55:42.947Z,93.7
2017-08-08T06:05:56.823Z,93.5
2017-08-08T06:16:11.623Z,93.4
2017-08-08T06:26:26.590Z,93.8
2017-08-08T06:36:40.487Z,93.1
2017-08-08T06:46:56.206Z,91.8
2017-08-08T06:57:10.913Z,89.6
2017-08-08T07:07:25.395Z,88.5
2017-08-08T07:17:41.040Z,85
2017-08-08T07:27:55.923Z,82.4
2017-08-08T07:38:09.964Z,80.3
2017-08-08T07:48:25.371Z,81.6
2017-08-08T07:58:40.635Z,83.1
2017-08-08T08:08:55.492Z,83.3
2017-08-08T08:19:11.273Z,84.2
2017-08-08T08:29:26.303Z,84.2
2017-08-08T08:39:40.297Z,83.6
2017-08-08T08:49:54.358Z,83.2
2017-08-08T09:00:09.824Z,83.8
2017-08-08T09:10:24.886Z,83.1
2017-08-08T09:20:40.502Z,83
2017-08-08T09:30:55.232Z,81.8
2017-08-08T09:41:10.217Z,81.7
2017-08-08T09:51:25.920Z,81
2017-08-08T10:01:40.678Z,81.5
2017-08-08T10:11:55.877Z,81.8
2017-08-08T10:22:09.860Z,83.1
2017-08-08T10:32:24.312Z,83.2
2017-08-08T10:42:38.891Z,84.6
2017-08-08T10:52:53.458Z,84.5
2017-08-08T11:03:08.136Z,85.4
2017-08-08T11:13:23.226Z,85.8
2017-08-08T11:23:37.559Z,86.5
2017-08-08T11:33:51.903Z,89.1
2017-08-08T11:44:06.838Z,90.1
2017-08-08T11:54:22.191Z,90.5
2017-08-08T12:04:37.597Z,91.3
2017-08-08T12:14:51.565Z,93.2
2017-08-08T12:25:05.618Z,95.2
2017-08-08T12:35:19.845Z,96.8
2017-08-08T12:45:35.531Z,94.7
2017-08-08T12:55:50.286Z,94.3
2017-08-08T13:06:05.976Z,94.2
2017-08-08T13:16:21.545Z,95.3
2017-08-08T13:26:36.806Z,95.3
2017-08-08T13:36:51.189Z,93.9
2017-08-08T13:47:05.496Z,94.7
2017-08-08T13:57:20.001Z,95.1
2017-08-08T14:07:35.177Z,95.2
2017-08-08T14:17:49.342Z,97.1
2017-08-08T14:28:03.698Z,100
2017-08-08T14:38:19.737Z,99
2017-08-08T14:48:34.723Z,100
2017-08-08T14:58:48.597Z,100
2017-08-08T15:09:03.510Z,100
2017-08-08T15:19:17.909Z,100
2017-08-08T15:29:33.063Z,99.8
2017-08-08T15:39:48.798Z,100
2017-08-08T15:50:04.357Z,100
2017-08-08T16:00:19.776Z,100
2017-08-08T16:10:34.684Z,100
2017-08-08T16:20:48.996Z,100
2017-08-08T16:31:03.384Z,100
2017-08-08T16:41:18.434Z,100
2017-08-08T16:51:34.005Z,100
2017-08-08T17:01:48.261Z,97.8
2017-08-08T17:12:03.693Z,95.5
2017-08-08T17:22:18.047Z,93.7
2017-08-08T17:32:32.812Z,93.5
2017-08-08T17:42:48.155Z,93.3
2017-08-08T17:53:02.959Z,92
2017-08-08T18:03:17.846Z,91.5
2017-08-08T18:13:31.638Z,91.2
2017-08-08T18:23:46.554Z,91
2017-08-08T18:34:00.688Z,91.1
2017-08-08T18:44:15.952Z,91.8
2017-08-08T18:54:31.379Z,91.7
2017-08-08T19:04:46.578Z,92
2017-08-08T19:15:02.053Z,92.3
2017-08-08T19:25:17.195Z,92.3
2017-08-08T19:35:32.230Z,92.8
2017-08-08T19:45:47.319Z,92.2
2017-08-08T19:56:02.765Z,92.3
2017-08-08T20:06:18.067Z,91.9
2017-08-08T20:16:31.856Z,92.4
2017-08-08T20:26:46.289Z,92.1
2017-08-08T20:37:01.572Z,92.1
2017-08-08T20:47:17.025Z,92.6
2017-08-08T20:57:31.611Z,91.9
2017-08-08T21:07:47.007Z,91.6
2017-08-08T21:18:02.123Z,90.9
2017-08-08T21:28:17.038Z,91.2
2017-08-08T21:38:32.132Z,90.6
2017-08-08T21:48:47.576Z,90.2
2017-08-08T21:59:01.583Z,89.1
2017-08-08T22:09:15.410Z,87.4
2017-08-08T22:19:29.828Z,86.7
2017-08-08T22:29:45.274Z,86
2017-08-08T22:39:59.332Z,85.2
2017-08-08T22:50:14.993Z,83.9
2017-08-08T23:00:28.952Z,83.2
2017-08-08T23:10:43.841Z,82.7
2017-08-08T23:20:58.107Z,82.6
2017-08-08T23:31:12.413Z,82.5
2017-08-08T23:41:26.314Z,82.7
2017-08-08T23:51:41.309Z,82.1
